Bell Bay, Tasmania

11:23 AM EST on September 03, 2014 (GMT +1000)
Great Bay, North Bruny Island | Change Station
CLOSE
Current Station
Personal Weather Station
Location: Great Bay, TASMANIA
Elevation: 16 ft
Nearby Weather Stations

Elev 16 ft 43.20 °S, 147.39 °E | Updated 1 second ago

Partly Cloudy
Partly Cloudy
60.8 °F
Feels Like 60.8 °F
N
0.2
Wind Variable Wind from NW
Gusts 2.5 mph

Today
High -- | Low -- °F
--% Chance of Precip.
Yesterday
High -- | Low -- °F
Precip. -- in
6:34 AM 5:46 PM
First Quarter, 57% visible
Pressure 30.12 in
Visibility 6.2 miles
Clouds Few 3700 ft
Dew Point 42 °F
Humidity 49%
Rainfall 0.00 in
Snow Depth Not available.
UV 2.0 out of 12
Pollen Not available.
Air Quality Not available.
Flu Activity Not available.
METAR YMHB 030100Z 34007KT 9999 FEW037 13/04 Q1020

More Conditions Fewer Conditions

Pressure 30.12 in
Visibility 6.2 miles
Clouds Few 3700 ft
Dew Point 42 °F
Humidity 49%
Rainfall 0.00 in
Snow Depth Not available.
UV 2.0 out of 12
Pollen Not available.
Air Quality Not available.
Flu Activity Not available.
METAR YMHB 030100Z 34007KT 9999 FEW037 13/04 Q1020

More Conditions Fewer Conditions

10-Day Weather Forecast

Almanac

Astronomy

Sep. 03, 2014 Rise Set
Actual Time 6:34 AM EST 5:46 PM EST
Civil Twilight 6:06 AM EST 6:14 PM EST
Nautical Twilight 5:33 AM EST 6:47 PM EST
Astronomical Twilight 5:00 AM EST 7:20 PM EST
Moon 11:19 AM EST 1:20 AM EST
Length of Visible Light 12h 08m
Length of Day
11h 11m
Tomorrow will be 2m 48s longer.
First Quarter, 57% of the Moon is Illuminated
Sep 2
First Quarter
Sep 8
Full
Sep 15
Last Quarter
Sep 24
New
Oct 1
First Quarter

Yesterday's Extremes

Country Highs Country Lows

Community

WunderPhotos

Upload Photos

1,749,826 photos uploaded!

Nearby

Snow Depth

Not available.

Earthquake Activity

City Distance Mag. Time & Date
No recent earthquake activity has been reported nearby.
Minimum magnitude displayed is 2.5.

Coastal Water Temperatures

Place Temperature
No Stations Reporting

Nearby Weather Stations